createdAt,value
2017-08-29T00:01:13.378Z,8.83
2017-08-29T00:03:39.632Z,8.50
2017-08-29T00:06:05.869Z,7.93
2017-08-29T00:08:32.077Z,7.80
2017-08-29T00:10:58.354Z,8.20
2017-08-29T00:13:24.568Z,9.20
2017-08-29T00:15:50.796Z,8.80
2017-08-29T00:18:17.259Z,8.00
2017-08-29T00:20:43.491Z,9.20
2017-08-29T00:23:09.714Z,8.67
2017-08-29T00:25:36.245Z,8.10
2017-08-29T00:28:02.454Z,8.57
2017-08-29T00:30:28.696Z,7.53
2017-08-29T00:32:55.137Z,7.60
2017-08-29T00:35:21.395Z,7.60
2017-08-29T00:37:47.645Z,8.70
2017-08-29T00:40:13.989Z,7.80
2017-08-29T00:42:40.239Z,8.60
2017-08-29T00:45:06.476Z,8.20
2017-08-29T00:47:33.022Z,7.73
2017-08-29T00:49:59.284Z,7.40
2017-08-29T00:52:25.530Z,7.50
2017-08-29T00:54:51.782Z,7.97
2017-08-29T00:57:18.037Z,7.77
2017-08-29T00:59:44.565Z,8.10
2017-08-29T01:02:10.830Z,7.40
2017-08-29T01:04:37.058Z,7.50
2017-08-29T01:07:03.666Z,8.77
2017-08-29T01:09:29.914Z,7.70
2017-08-29T01:11:56.170Z,7.43
2017-08-29T01:14:22.418Z,7.83
2017-08-29T01:16:48.662Z,7.70
2017-08-29T01:19:14.907Z,7.43
2017-08-29T01:21:41.185Z,7.87
2017-08-29T01:24:07.443Z,7.67
2017-08-29T01:26:33.676Z,7.90
2017-08-29T01:28:59.942Z,7.10
2017-08-29T01:31:26.218Z,7.40
2017-08-29T01:33:52.445Z,7.37
2017-08-29T01:36:18.705Z,8.00
2017-08-29T01:38:44.920Z,7.23
2017-08-29T01:41:11.155Z,7.30
2017-08-29T01:43:37.420Z,7.60
2017-08-29T01:46:03.663Z,7.00
2017-08-29T01:48:29.904Z,7.20
2017-08-29T01:50:56.221Z,7.23
2017-08-29T01:53:22.467Z,7.03
2017-08-29T01:55:48.690Z,7.30
2017-08-29T01:58:15.256Z,7.50
2017-08-29T02:00:41.484Z,7.80
2017-08-29T02:03:07.738Z,7.33
2017-08-29T02:05:33.996Z,7.90
2017-08-29T02:08:00.347Z,8.30
2017-08-29T02:10:26.575Z,8.10
2017-08-29T02:12:52.920Z,6.80
2017-08-29T02:15:19.131Z,7.30
2017-08-29T02:17:45.344Z,6.70
2017-08-29T02:20:11.596Z,7.07
2017-08-29T02:22:37.796Z,6.63
2017-08-29T02:25:04.016Z,6.90
2017-08-29T02:27:30.428Z,7.57
2017-08-29T02:29:56.647Z,6.73
2017-08-29T02:32:22.862Z,7.40
2017-08-29T02:34:49.126Z,7.10
2017-08-29T02:37:15.331Z,7.00
2017-08-29T02:39:41.531Z,7.37
2017-08-29T02:42:07.764Z,7.00
2017-08-29T02:44:33.991Z,7.53
2017-08-29T02:47:00.193Z,7.10
2017-08-29T02:49:26.515Z,6.03
2017-08-29T02:51:52.725Z,7.00
2017-08-29T02:54:18.941Z,7.53
2017-08-29T02:56:45.160Z,7.00
2017-08-29T02:59:11.371Z,7.77
2017-08-29T03:01:37.594Z,7.30
2017-08-29T03:04:03.840Z,7.00
2017-08-29T03:06:30.054Z,6.70
2017-08-29T03:08:56.799Z,6.90
2017-08-29T03:11:22.991Z,7.30
2017-08-29T03:13:49.195Z,6.33
2017-08-29T03:16:15.435Z,6.73
2017-08-29T03:18:41.638Z,6.33
2017-08-29T03:21:07.857Z,7.30
2017-08-29T03:23:34.093Z,6.53
2017-08-29T03:26:00.293Z,6.47
2017-08-29T03:28:26.500Z,7.50
2017-08-29T03:30:52.944Z,6.70
2017-08-29T03:33:19.150Z,6.50
2017-08-29T03:35:45.360Z,6.60
2017-08-29T03:38:11.930Z,6.20
2017-08-29T03:40:38.127Z,6.07
2017-08-29T03:43:04.332Z,6.90
2017-08-29T03:45:30.568Z,6.80
2017-08-29T03:47:56.774Z,6.20
2017-08-29T03:50:22.993Z,6.43
2017-08-29T03:52:49.236Z,6.83
2017-08-29T03:55:15.441Z,6.30
2017-08-29T03:57:41.648Z,6.20
2017-08-29T04:00:07.948Z,6.20
2017-08-29T04:02:34.164Z,6.00
2017-08-29T04:05:00.370Z,6.07
2017-08-29T04:07:26.596Z,5.43
2017-08-29T04:09:52.843Z,5.23
2017-08-29T04:12:19.049Z,6.13
2017-08-29T04:14:45.297Z,6.50
2017-08-29T04:17:11.505Z,5.73
2017-08-29T04:19:37.738Z,6.27
2017-08-29T04:22:03.931Z,6.30
2017-08-29T04:24:30.142Z,6.40
2017-08-29T04:26:56.702Z,5.90
2017-08-29T04:29:22.919Z,6.00
2017-08-29T04:31:49.124Z,6.00
2017-08-29T04:34:16.234Z,6.03
2017-08-29T04:36:43.531Z,5.40
2017-08-29T04:39:11.023Z,5.70
2017-08-29T04:41:38.542Z,5.90
2017-08-29T04:44:05.413Z,5.53
2017-08-29T04:46:32.423Z,5.47
2017-08-29T04:49:00.405Z,5.70
2017-08-29T04:51:27.434Z,4.73
2017-08-29T04:53:54.418Z,5.60
2017-08-29T04:56:24.552Z,5.77
2017-08-29T04:58:51.738Z,5.73
2017-08-29T05:01:20.689Z,4.87
2017-08-29T05:03:49.017Z,4.73
2017-08-29T05:06:15.310Z,5.13
2017-08-29T05:08:41.539Z,5.23
2017-08-29T05:11:07.796Z,4.47
2017-08-29T05:13:34.016Z,5.33
2017-08-29T05:16:00.509Z,5.40
2017-08-29T05:18:27.760Z,6.10
2017-08-29T05:20:53.971Z,8.63
2017-08-29T05:23:20.220Z,5.87
2017-08-29T05:25:46.648Z,4.80
2017-08-29T05:28:12.851Z,5.37
2017-08-29T05:30:39.095Z,5.40
2017-08-29T05:33:05.316Z,5.80
2017-08-29T05:35:31.532Z,4.50
2017-08-29T05:37:57.742Z,5.57
2017-08-29T05:40:23.969Z,4.27
2017-08-29T05:42:50.224Z,4.90
2017-08-29T05:45:16.432Z,5.77
2017-08-29T05:47:42.639Z,4.97
2017-08-29T05:50:09.231Z,5.00
2017-08-29T05:52:35.475Z,4.27
2017-08-29T05:55:01.753Z,4.43
2017-08-29T05:57:28.028Z,4.73
2017-08-29T05:59:54.387Z,5.40
2017-08-29T06:02:20.651Z,4.90
2017-08-29T06:04:46.879Z,4.70
2017-08-29T06:07:13.107Z,4.90
2017-08-29T06:09:39.680Z,4.40
2017-08-29T06:12:05.958Z,4.97
2017-08-29T06:14:32.222Z,4.63
2017-08-29T06:16:58.452Z,4.80
2017-08-29T06:19:24.755Z,5.60
2017-08-29T06:21:50.963Z,5.50
2017-08-29T06:24:17.172Z,4.90
2017-08-29T06:26:43.958Z,4.90
2017-08-29T06:29:10.186Z,5.53
2017-08-29T06:31:36.938Z,4.90
2017-08-29T06:34:03.154Z,5.07
2017-08-29T06:36:29.379Z,4.97
2017-08-29T06:38:55.839Z,5.07
2017-08-29T06:41:22.359Z,5.70
2017-08-29T06:43:48.689Z,7.63
2017-08-29T06:46:15.239Z,6.57
2017-08-29T06:48:41.464Z,5.33
2017-08-29T06:51:07.667Z,6.07
2017-08-29T06:53:34.131Z,5.47
2017-08-29T06:56:00.488Z,6.33
2017-08-29T06:58:26.715Z,5.90
2017-08-29T07:00:52.960Z,5.40
2017-08-29T07:03:19.154Z,5.13
2017-08-29T07:05:45.356Z,5.60
2017-08-29T07:08:11.571Z,5.60
2017-08-29T07:10:37.796Z,5.90
2017-08-29T07:13:04.049Z,5.30
2017-08-29T07:15:30.291Z,5.97
2017-08-29T07:17:56.483Z,6.23
2017-08-29T07:20:22.800Z,5.20
2017-08-29T07:22:49.000Z,5.40
2017-08-29T07:25:15.215Z,5.80
2017-08-29T07:27:41.452Z,5.33
2017-08-29T07:30:07.664Z,6.27
2017-08-29T07:32:34.139Z,6.10
2017-08-29T07:35:00.359Z,5.70
2017-08-29T07:37:26.562Z,6.30
2017-08-29T07:39:53.092Z,5.57
2017-08-29T07:42:19.303Z,6.27
2017-08-29T07:44:45.501Z,5.50
2017-08-29T07:47:11.746Z,5.53
2017-08-29T07:49:37.975Z,6.10
2017-08-29T07:52:04.209Z,5.63
2017-08-29T07:54:30.657Z,5.20
2017-08-29T07:56:56.890Z,5.20
2017-08-29T07:59:23.164Z,4.77
2017-08-29T08:01:49.492Z,5.33
2017-08-29T08:04:15.720Z,5.67
2017-08-29T08:06:41.943Z,5.20
2017-08-29T08:09:08.195Z,5.47
2017-08-29T08:11:34.430Z,4.60
2017-08-29T08:14:00.668Z,5.53
2017-08-29T08:16:27.219Z,4.40
2017-08-29T08:18:53.472Z,5.47
2017-08-29T08:21:19.709Z,5.13
2017-08-29T08:23:45.925Z,5.23
2017-08-29T08:26:12.160Z,6.10
2017-08-29T08:28:38.435Z,5.43
2017-08-29T08:31:04.766Z,4.83
2017-08-29T08:33:30.964Z,6.10
2017-08-29T08:35:57.440Z,7.97
2017-08-29T08:38:23.642Z,5.60
2017-08-29T08:40:49.909Z,8.60
2017-08-29T08:43:16.152Z,7.33
2017-08-29T08:45:42.360Z,6.37
2017-08-29T08:48:08.573Z,6.40
2017-08-29T08:50:35.399Z,5.20
2017-08-29T08:53:01.616Z,4.60
2017-08-29T08:55:27.824Z,5.00
2017-08-29T08:58:01.305Z,5.13
2017-08-29T09:00:27.572Z,4.53
2017-08-29T09:02:53.800Z,5.40
2017-08-29T09:05:20.048Z,6.17
2017-08-29T09:07:46.267Z,10.83
2017-08-29T09:10:12.529Z,6.00
2017-08-29T09:12:38.729Z,5.07
2017-08-29T09:15:04.963Z,9.67
2017-08-29T09:17:31.319Z,7.13
2017-08-29T09:19:57.594Z,16.50
2017-08-29T09:22:23.827Z,5.60
2017-08-29T09:24:50.076Z,5.67
2017-08-29T09:27:16.291Z,7.27
2017-08-29T09:29:42.619Z,5.80
2017-08-29T09:32:08.861Z,7.50
2017-08-29T09:34:35.055Z,8.03
2017-08-29T09:37:01.330Z,4.93
2017-08-29T09:39:27.555Z,5.63
2017-08-29T09:41:53.761Z,19.93
2017-08-29T09:44:19.969Z,4.97
2017-08-29T09:46:46.620Z,5.93
2017-08-29T09:49:12.836Z,4.30
2017-08-29T09:51:39.056Z,5.50
2017-08-29T09:54:05.352Z,7.20
2017-08-29T09:56:31.586Z,4.63
2017-08-29T09:58:57.815Z,10.20
2017-08-29T10:01:24.077Z,5.47
2017-08-29T10:03:50.275Z,4.87
2017-08-29T10:06:16.484Z,4.10
2017-08-29T10:08:42.719Z,5.43
2017-08-29T10:11:08.936Z,6.17
2017-08-29T10:13:35.720Z,4.60
2017-08-29T10:16:02.333Z,4.93
2017-08-29T10:18:28.568Z,4.80
2017-08-29T10:20:55.076Z,4.70
2017-08-29T10:23:21.326Z,5.57
2017-08-29T10:25:47.540Z,5.27
2017-08-29T10:28:13.747Z,5.00
2017-08-29T10:30:39.997Z,5.20
2017-08-29T10:33:06.444Z,5.13
2017-08-29T10:35:33.000Z,5.00
2017-08-29T10:37:59.374Z,5.00
2017-08-29T10:40:25.698Z,5.00
2017-08-29T10:42:51.908Z,4.57
2017-08-29T10:45:18.173Z,5.30
2017-08-29T10:47:44.407Z,5.40
2017-08-29T10:50:10.646Z,5.17
2017-08-29T10:52:36.892Z,6.30
2017-08-29T10:55:03.259Z,5.63
2017-08-29T10:57:29.518Z,5.90
2017-08-29T10:59:55.735Z,6.03
2017-08-29T11:02:21.958Z,5.53
2017-08-29T11:04:48.872Z,5.77
2017-08-29T11:07:15.102Z,6.80
2017-08-29T11:09:41.331Z,5.60
2017-08-29T11:12:07.548Z,5.60
2017-08-29T11:14:33.815Z,5.83
2017-08-29T11:17:00.031Z,6.40
2017-08-29T11:19:26.258Z,6.53
2017-08-29T11:21:52.525Z,6.53
2017-08-29T11:24:18.778Z,5.60
2017-08-29T11:26:45.075Z,5.90
2017-08-29T11:29:11.728Z,6.40
2017-08-29T11:31:37.951Z,6.93
2017-08-29T11:34:04.182Z,8.90
2017-08-29T11:36:30.467Z,6.50
2017-08-29T11:38:56.694Z,7.37
2017-08-29T11:41:22.918Z,7.83
2017-08-29T11:43:49.171Z,7.23
2017-08-29T11:46:15.395Z,6.43
2017-08-29T11:48:41.654Z,6.53
2017-08-29T11:51:07.892Z,6.00
2017-08-29T11:53:34.139Z,10.93
2017-08-29T11:56:00.384Z,6.40
2017-08-29T11:58:26.700Z,7.30
2017-08-29T12:00:52.981Z,12.73
2017-08-29T12:03:19.224Z,12.43
2017-08-29T12:05:45.466Z,12.10
2017-08-29T12:08:11.724Z,15.67
2017-08-29T12:10:37.975Z,12.30
2017-08-29T12:13:04.187Z,12.70
2017-08-29T12:15:30.404Z,12.13
2017-08-29T12:17:56.644Z,12.20
2017-08-29T12:20:22.874Z,9.63
2017-08-29T12:22:49.316Z,10.03
2017-08-29T12:25:15.655Z,8.77
2017-08-29T12:27:41.855Z,8.70
2017-08-29T12:30:08.078Z,9.67
2017-08-29T12:32:34.777Z,8.83
2017-08-29T12:35:00.990Z,8.37
2017-08-29T12:37:27.215Z,8.20
2017-08-29T12:39:53.535Z,7.43
2017-08-29T12:42:19.743Z,9.57
2017-08-29T12:44:45.976Z,8.20
2017-08-29T12:47:12.252Z,10.17
2017-08-29T12:49:38.476Z,8.80
2017-08-29T12:52:04.699Z,9.60
2017-08-29T12:54:30.937Z,10.67
2017-08-29T12:56:57.195Z,9.20
2017-08-29T12:59:23.426Z,6.90
2017-08-29T13:01:49.669Z,8.23
2017-08-29T13:04:15.902Z,7.37
2017-08-29T13:06:42.117Z,8.00
2017-08-29T13:09:08.333Z,9.40
2017-08-29T13:11:34.668Z,8.30
2017-08-29T13:14:00.887Z,8.00
2017-08-29T13:16:27.092Z,8.10
2017-08-29T13:18:53.340Z,8.67
2017-08-29T13:21:19.564Z,7.10
2017-08-29T13:23:45.800Z,8.20
2017-08-29T13:26:12.092Z,9.77
2017-08-29T13:28:38.299Z,9.77
2017-08-29T13:31:04.512Z,11.03
2017-08-29T13:33:32.583Z,9.97
2017-08-29T13:35:58.787Z,10.40
2017-08-29T13:38:24.991Z,8.87
2017-08-29T13:40:51.222Z,8.90
2017-08-29T13:43:17.439Z,7.70
2017-08-29T13:45:43.651Z,8.23
2017-08-29T13:48:10.093Z,7.57
2017-08-29T13:50:36.293Z,9.20
2017-08-29T13:53:02.535Z,9.67
2017-08-29T13:55:28.749Z,10.00
2017-08-29T13:57:54.951Z,8.40
2017-08-29T14:00:21.172Z,9.50
2017-08-29T14:02:47.408Z,9.80
2017-08-29T14:05:20.678Z,8.10
2017-08-29T14:07:46.906Z,8.10
2017-08-29T14:10:13.167Z,8.97
2017-08-29T14:12:39.388Z,7.63
2017-08-29T14:15:05.632Z,13.40
2017-08-29T14:17:31.971Z,7.33
2017-08-29T14:19:58.230Z,10.97
2017-08-29T14:22:24.516Z,13.17
2017-08-29T14:24:50.760Z,23.73
2017-08-29T14:27:17.002Z,10.30
2017-08-29T14:29:44.471Z,18.67
2017-08-29T14:32:18.592Z,16.27
2017-08-29T14:34:53.228Z,18.40
2017-08-29T14:37:20.617Z,9.10
2017-08-29T14:39:47.828Z,13.07
2017-08-29T14:42:15.372Z,10.77
2017-08-29T14:44:42.690Z,14.73
2017-08-29T14:47:28.156Z,14.20
2017-08-29T14:49:56.539Z,12.50
2017-08-29T14:52:23.939Z,15.30
2017-08-29T14:54:51.366Z,11.83
2017-08-29T14:57:19.569Z,12.37
2017-08-29T14:59:46.745Z,13.30
2017-08-29T15:02:14.950Z,18.70
2017-08-29T15:04:42.181Z,11.90
2017-08-29T15:07:09.435Z,14.20
2017-08-29T15:09:36.563Z,12.83
2017-08-29T15:12:04.072Z,13.83
2017-08-29T15:14:31.131Z,20.80
2017-08-29T15:17:00.419Z,21.60
2017-08-29T15:19:27.896Z,15.10
2017-08-29T15:21:56.731Z,15.10
2017-08-29T15:24:25.034Z,15.33
2017-08-29T15:26:52.408Z,16.10
2017-08-29T15:29:19.746Z,17.17
2017-08-29T15:31:47.826Z,16.70
2017-08-29T15:34:15.193Z,29.23
2017-08-29T15:36:42.674Z,19.90
2017-08-29T15:39:10.528Z,22.70
2017-08-29T15:41:37.785Z,45.07
2017-08-29T15:44:05.365Z,24.53
2017-08-29T15:46:32.732Z,32.73
2017-08-29T15:49:00.032Z,21.77
2017-08-29T15:51:29.184Z,19.30
2017-08-29T15:53:56.516Z,18.10
2017-08-29T15:56:23.691Z,22.07
2017-08-29T15:58:51.612Z,22.63
2017-08-29T16:01:19.070Z,17.47
2017-08-29T16:03:47.538Z,18.47
2017-08-29T16:06:14.960Z,18.50
2017-08-29T16:08:42.306Z,24.03
2017-08-29T16:11:10.514Z,21.50
2017-08-29T16:13:38.635Z,18.70
2017-08-29T16:16:06.015Z,36.97
2017-08-29T16:18:33.586Z,24.20
2017-08-29T16:21:01.015Z,25.80
2017-08-29T16:23:28.338Z,27.57
2017-08-29T16:25:55.868Z,26.07
2017-08-29T16:28:23.741Z,34.27
2017-08-29T16:30:51.607Z,28.93
2017-08-29T16:33:22.138Z,32.33
2017-08-29T16:35:50.206Z,19.80
2017-08-29T16:38:18.074Z,37.90
2017-08-29T16:40:46.472Z,38.90
2017-08-29T16:43:14.658Z,47.43
2017-08-29T16:45:42.439Z,66.63
2017-08-29T16:48:10.842Z,27.47
2017-08-29T16:50:39.387Z,41.30
2017-08-29T16:53:07.706Z,67.43
2017-08-29T16:55:36.834Z,55.60
2017-08-29T16:58:04.808Z,26.60
2017-08-29T17:00:32.691Z,46.33
2017-08-29T17:03:00.023Z,41.80
2017-08-29T17:05:27.596Z,35.20
2017-08-29T17:07:55.348Z,25.80
2017-08-29T17:10:22.660Z,79.17
2017-08-29T17:12:51.347Z,33.60
2017-08-29T17:15:18.873Z,80.03
2017-08-29T17:17:47.071Z,37.60
2017-08-29T17:20:14.579Z,64.90
2017-08-29T17:22:42.778Z,31.60
2017-08-29T17:25:10.262Z,38.80
2017-08-29T17:27:39.664Z,47.63
2017-08-29T17:30:09.280Z,46.10
2017-08-29T17:32:36.736Z,68.33
2017-08-29T17:35:05.073Z,43.00
2017-08-29T17:37:32.681Z,39.27
2017-08-29T17:40:00.721Z,33.53
2017-08-29T17:42:29.057Z,29.57
2017-08-29T17:44:56.437Z,42.90
2017-08-29T17:47:24.951Z,73.53
2017-08-29T17:49:53.507Z,65.60
2017-08-29T17:52:22.142Z,45.83
2017-08-29T17:54:49.832Z,92.67
2017-08-29T17:57:17.465Z,144.90
2017-08-29T17:59:45.888Z,38.37
2017-08-29T18:02:14.207Z,30.17
2017-08-29T18:04:41.718Z,42.00
2017-08-29T18:07:08.969Z,19.67
2017-08-29T18:09:36.609Z,31.83
2017-08-29T18:12:04.996Z,41.27
2017-08-29T18:14:32.337Z,36.70
2017-08-29T18:17:00.101Z,32.10
2017-08-29T18:19:28.327Z,26.60
2017-08-29T18:21:55.749Z,26.20
2017-08-29T18:24:23.003Z,24.10
2017-08-29T18:26:50.443Z,36.20
2017-08-29T18:29:18.116Z,25.87
2017-08-29T18:31:45.431Z,26.40
2017-08-29T18:34:12.932Z,22.03
2017-08-29T18:36:40.520Z,24.30
2017-08-29T18:39:07.875Z,23.70
2017-08-29T18:41:35.251Z,22.80
2017-08-29T18:44:02.549Z,23.73
2017-08-29T18:46:30.080Z,20.07
2017-08-29T18:48:57.457Z,24.97
2017-08-29T18:51:24.699Z,24.10
2017-08-29T18:53:52.989Z,23.63
2017-08-29T18:56:21.248Z,24.37
2017-08-29T18:58:48.856Z,27.33
2017-08-29T19:01:17.436Z,28.23
2017-08-29T19:03:45.061Z,38.77
2017-08-29T19:06:12.402Z,64.40
2017-08-29T19:08:42.958Z,34.73
2017-08-29T19:11:11.336Z,33.90
2017-08-29T19:13:38.848Z,35.10
2017-08-29T19:16:06.771Z,40.37
2017-08-29T19:18:35.397Z,36.80
2017-08-29T19:21:08.530Z,30.63
2017-08-29T19:23:40.872Z,32.90
2017-08-29T19:26:11.225Z,30.27
2017-08-29T19:34:45.323Z,37.50
2017-08-29T19:37:12.770Z,38.80
2017-08-29T19:39:40.038Z,31.67
2017-08-29T19:42:07.821Z,28.43
2017-08-29T19:44:35.429Z,30.30
2017-08-29T19:47:03.700Z,28.53
2017-08-29T19:49:32.196Z,32.10
2017-08-29T19:51:59.701Z,38.50
2017-08-29T19:54:27.613Z,37.30
2017-08-29T19:56:55.682Z,35.87
2017-08-29T19:59:23.202Z,36.07
2017-08-29T20:01:50.717Z,33.97
2017-08-29T20:04:19.761Z,36.50
2017-08-29T20:06:47.260Z,35.00
2017-08-29T20:09:13.745Z,37.97
2017-08-29T20:11:40.102Z,32.00
2017-08-29T20:14:06.378Z,29.90
2017-08-29T20:16:32.666Z,32.30
2017-08-29T20:18:59.622Z,32.93
2017-08-29T20:21:25.872Z,32.20
2017-08-29T20:23:52.131Z,33.20
2017-08-29T20:26:18.777Z,31.20
2017-08-29T20:28:45.032Z,33.07
2017-08-29T20:31:11.271Z,30.30
2017-08-29T20:33:37.520Z,31.00
2017-08-29T20:36:03.797Z,32.43
2017-08-29T20:38:30.040Z,31.60
2017-08-29T20:40:56.512Z,34.77
2017-08-29T20:43:22.868Z,32.17
2017-08-29T20:45:49.215Z,31.83
2017-08-29T20:48:15.752Z,34.73
2017-08-29T20:50:42.123Z,31.23
2017-08-29T20:53:08.456Z,33.70
2017-08-29T20:55:35.718Z,32.67
2017-08-29T20:58:02.088Z,34.30
2017-08-29T21:00:28.551Z,34.00
2017-08-29T21:02:54.960Z,33.50
2017-08-29T21:05:22.580Z,33.07
2017-08-29T21:07:48.992Z,33.83
2017-08-29T21:10:15.343Z,36.03
2017-08-29T21:12:42.545Z,34.93
2017-08-29T21:15:08.910Z,34.33
2017-08-29T21:17:35.889Z,33.30
2017-08-29T21:20:03.176Z,35.80
2017-08-29T21:22:32.036Z,33.17
2017-08-29T21:24:59.121Z,32.80
2017-08-29T21:27:25.357Z,32.97
2017-08-29T21:29:51.593Z,34.03
2017-08-29T21:32:18.089Z,34.77
2017-08-29T21:34:44.385Z,33.60
2017-08-29T21:37:10.993Z,33.20
2017-08-29T21:39:37.261Z,34.23
2017-08-29T21:42:03.637Z,34.30
2017-08-29T21:44:30.009Z,34.80
2017-08-29T21:46:56.272Z,36.37
2017-08-29T21:49:22.536Z,38.50
2017-08-29T21:51:48.765Z,37.57
2017-08-29T21:54:15.028Z,35.50
2017-08-29T21:56:41.292Z,40.63
2017-08-29T21:59:07.560Z,37.00
2017-08-29T22:01:33.901Z,37.03
2017-08-29T22:04:00.153Z,37.50
2017-08-29T22:06:26.753Z,36.70
2017-08-29T22:08:52.981Z,36.70
2017-08-29T22:11:19.248Z,37.17
2017-08-29T22:13:45.637Z,36.57
2017-08-29T22:16:11.870Z,36.40
2017-08-29T22:18:38.127Z,36.33
2017-08-29T22:21:04.392Z,37.37
2017-08-29T22:23:30.613Z,32.73
2017-08-29T22:25:56.861Z,35.33
2017-08-29T22:28:23.160Z,32.00
2017-08-29T22:30:49.365Z,34.00
2017-08-29T22:33:15.697Z,34.50
2017-08-29T22:35:42.311Z,32.90
2017-08-29T22:38:09.308Z,31.77
2017-08-29T22:40:35.721Z,33.90
2017-08-29T22:43:01.968Z,36.50
2017-08-29T22:45:28.208Z,34.73
2017-08-29T22:47:54.441Z,32.30
2017-08-29T22:50:20.856Z,32.77
2017-08-29T22:52:47.077Z,32.40
2017-08-29T22:55:13.304Z,34.27
2017-08-29T22:57:39.520Z,31.70
2017-08-29T23:00:05.827Z,31.80
2017-08-29T23:02:32.082Z,31.43
2017-08-29T23:04:58.325Z,31.20
2017-08-29T23:07:24.548Z,33.00
2017-08-29T23:09:50.816Z,30.80
2017-08-29T23:12:17.103Z,33.27
2017-08-29T23:14:43.326Z,38.30
2017-08-29T23:17:09.566Z,35.40
2017-08-29T23:19:36.551Z,33.23
2017-08-29T23:22:02.829Z,34.63
2017-08-29T23:24:29.067Z,37.47
2017-08-29T23:26:55.300Z,36.07
2017-08-29T23:29:21.868Z,35.50
2017-08-29T23:31:48.464Z,34.13
2017-08-29T23:34:14.829Z,35.13
2017-08-29T23:36:41.266Z,35.40
2017-08-29T23:39:07.814Z,36.43
2017-08-29T23:41:34.063Z,36.20
2017-08-29T23:44:00.300Z,39.10
2017-08-29T23:46:26.593Z,35.93
2017-08-29T23:48:52.836Z,35.07
2017-08-29T23:51:19.115Z,34.30
2017-08-29T23:53:45.405Z,35.27
2017-08-29T23:56:11.631Z,37.93
2017-08-29T23:58:37.902Z,39.27
